createdAt,value
2023-04-18T00:00:52.057Z,465.00
2023-04-18T00:01:52.083Z,465.00
2023-04-18T00:02:52.188Z,467.00
2023-04-18T00:03:52.218Z,467.00
2023-04-18T00:04:52.050Z,467.00
2023-04-18T00:05:51.977Z,466.00
2023-04-18T00:06:51.984Z,467.00
2023-04-18T00:07:51.966Z,466.00
2023-04-18T00:08:51.936Z,466.00
2023-04-18T00:09:51.933Z,465.00
2023-04-18T00:10:51.989Z,462.00
2023-04-18T00:11:51.908Z,464.00
2023-04-18T00:12:51.892Z,465.00
2023-04-18T00:13:51.853Z,466.00
2023-04-18T00:14:51.842Z,466.00
2023-04-18T00:15:51.809Z,469.00
2023-04-18T00:16:51.936Z,469.00
2023-04-18T00:17:51.854Z,467.00
2023-04-18T00:18:51.862Z,469.00
2023-04-18T00:19:51.900Z,471.00
2023-04-18T00:20:51.909Z,472.00
2023-04-18T00:21:51.936Z,473.00
2023-04-18T00:22:51.957Z,474.00
2023-04-18T00:23:51.980Z,474.00
2023-04-18T00:24:52.022Z,474.00
2023-04-18T00:25:52.051Z,474.00
2023-04-18T00:26:52.108Z,475.00
2023-04-18T00:27:52.096Z,474.00
2023-04-18T00:28:52.139Z,471.00
2023-04-18T00:29:52.159Z,469.00
2023-04-18T00:30:52.240Z,469.00
2023-04-18T00:31:52.224Z,470.00
2023-04-18T00:32:52.292Z,470.00
2023-04-18T00:33:52.278Z,470.00
2023-04-18T00:34:52.312Z,471.00
2023-04-18T00:35:52.325Z,468.00
2023-04-18T00:36:52.359Z,467.00
2023-04-18T00:37:52.406Z,466.00
2023-04-18T00:38:52.420Z,464.00
2023-04-18T00:39:52.451Z,464.00
2023-04-18T00:40:52.482Z,464.00
2023-04-18T00:41:52.512Z,463.00
2023-04-18T00:42:52.559Z,461.00
2023-04-18T00:43:52.558Z,461.00
2023-04-18T00:44:52.582Z,462.00
2023-04-18T00:45:52.673Z,461.00
2023-04-18T00:46:52.630Z,462.00
2023-04-18T00:47:52.780Z,463.00
2023-04-18T00:48:52.683Z,464.00
2023-04-18T00:49:52.692Z,468.00
2023-04-18T00:50:52.711Z,467.00
2023-04-18T00:51:52.734Z,465.00
2023-04-18T00:52:52.755Z,466.00
2023-04-18T00:53:52.778Z,465.00
2023-04-18T00:54:52.804Z,464.00
2023-04-18T00:55:52.826Z,463.00
2023-04-18T00:56:52.840Z,466.00
2023-04-18T00:57:52.863Z,467.00
2023-04-18T00:58:52.904Z,466.00
2023-04-18T00:59:52.913Z,467.00
2023-04-18T01:00:52.930Z,467.00
2023-04-18T01:01:53.160Z,467.00
2023-04-18T01:02:53.196Z,468.00
2023-04-18T01:03:53.176Z,470.00
2023-04-18T01:04:53.039Z,472.00
2023-04-18T01:05:53.049Z,475.00
2023-04-18T01:06:53.081Z,475.00
2023-04-18T01:07:53.102Z,475.00
2023-04-18T01:08:53.125Z,474.00
2023-04-18T01:09:53.161Z,471.00
2023-04-18T01:10:53.176Z,471.00
2023-04-18T01:11:53.220Z,469.00
2023-04-18T01:12:53.233Z,467.00
2023-04-18T01:13:53.261Z,465.00
2023-04-18T01:14:53.311Z,464.00
2023-04-18T01:15:53.333Z,465.00
2023-04-18T01:16:53.337Z,466.00
2023-04-18T01:17:53.381Z,465.00
2023-04-18T01:18:53.376Z,464.00
2023-04-18T01:19:53.402Z,463.00
2023-04-18T01:20:53.427Z,463.00
2023-04-18T01:21:53.490Z,465.00
2023-04-18T01:22:53.479Z,467.00
2023-04-18T01:23:53.517Z,463.00
2023-04-18T01:24:53.540Z,462.00
2023-04-18T01:25:53.563Z,466.00
2023-04-18T01:26:53.589Z,468.00
2023-04-18T01:27:53.616Z,469.00
2023-04-18T01:28:53.643Z,472.00
2023-04-18T01:29:53.688Z,473.00
2023-04-18T01:30:53.758Z,474.00
2023-04-18T01:31:53.714Z,474.00
2023-04-18T01:32:53.798Z,472.00
2023-04-18T01:33:53.769Z,472.00
2023-04-18T01:34:53.799Z,471.00
2023-04-18T01:35:53.829Z,469.00
2023-04-18T01:36:53.847Z,469.00
2023-04-18T01:37:53.881Z,467.00
2023-04-18T01:38:53.910Z,463.00
2023-04-18T01:39:53.929Z,464.00
2023-04-18T01:40:53.966Z,464.00
2023-04-18T01:41:53.974Z,464.00
2023-04-18T01:42:54.004Z,462.00
2023-04-18T01:43:54.023Z,464.00
2023-04-18T01:44:54.053Z,464.00
2023-04-18T01:45:54.077Z,465.00
2023-04-18T01:46:54.169Z,465.00
2023-04-18T01:47:54.157Z,467.00
2023-04-18T01:48:54.157Z,466.00
2023-04-18T01:49:54.188Z,465.00
2023-04-18T01:50:54.215Z,467.00
2023-04-18T01:51:54.248Z,467.00
2023-04-18T01:52:54.281Z,467.00
2023-04-18T01:53:54.321Z,467.00
2023-04-18T01:54:54.333Z,467.00
2023-04-18T01:55:54.355Z,466.00
2023-04-18T01:56:54.397Z,468.00
2023-04-18T01:57:54.417Z,469.00
2023-04-18T01:58:54.446Z,468.00
2023-04-18T01:59:54.674Z,468.00
2023-04-18T02:00:54.555Z,467.00
2023-04-18T02:01:54.666Z,468.00
2023-04-18T02:02:54.655Z,468.00
2023-04-18T02:03:54.690Z,465.00
2023-04-18T02:04:54.619Z,467.00
2023-04-18T02:05:54.663Z,466.00
2023-04-18T02:06:54.686Z,465.00
2023-04-18T02:07:54.702Z,465.00
2023-04-18T02:08:54.759Z,463.00
2023-04-18T02:09:54.757Z,462.00
2023-04-18T02:10:54.793Z,463.00
2023-04-18T02:11:54.826Z,465.00
2023-04-18T02:12:54.856Z,465.00
2023-04-18T02:13:54.873Z,464.00
2023-04-18T02:14:54.906Z,466.00
2023-04-18T02:15:54.929Z,465.00
2023-04-18T02:16:55.057Z,465.00
2023-04-18T02:17:54.992Z,465.00
2023-04-18T02:18:55.042Z,464.00
2023-04-18T02:19:55.045Z,466.00
2023-04-18T02:20:55.076Z,467.00
2023-04-18T02:21:55.103Z,468.00
2023-04-18T02:22:55.140Z,467.00
2023-04-18T02:23:55.167Z,467.00
2023-04-18T02:24:55.192Z,470.00
2023-04-18T02:25:55.228Z,469.00
2023-04-18T02:26:55.255Z,469.00
2023-04-18T02:27:55.292Z,470.00
2023-04-18T02:28:55.331Z,471.00
2023-04-18T02:29:55.353Z,468.00
2023-04-18T02:30:55.381Z,469.00
2023-04-18T02:31:55.464Z,468.00
2023-04-18T02:32:55.502Z,470.00
2023-04-18T02:33:55.468Z,471.00
2023-04-18T02:34:55.521Z,472.00
2023-04-18T02:35:55.516Z,470.00
2023-04-18T02:36:55.546Z,469.00
2023-04-18T02:37:55.569Z,470.00
2023-04-18T02:38:55.600Z,469.00
2023-04-18T02:39:55.637Z,468.00
2023-04-18T02:40:55.663Z,467.00
2023-04-18T02:41:55.691Z,470.00
2023-04-18T02:42:55.714Z,472.00
2023-04-18T02:43:55.737Z,471.00
2023-04-18T02:44:55.780Z,467.00
2023-04-18T02:45:55.852Z,465.00
2023-04-18T02:46:55.826Z,464.00
2023-04-18T02:47:56.657Z,464.00
2023-04-18T02:48:55.894Z,462.00
2023-04-18T02:49:55.919Z,461.00
2023-04-18T02:50:56.021Z,461.00
2023-04-18T02:51:55.978Z,459.00
2023-04-18T02:52:56.064Z,458.00
2023-04-18T02:53:56.032Z,456.00
2023-04-18T02:54:56.071Z,456.00
2023-04-18T02:55:56.138Z,461.00
2023-04-18T02:56:56.132Z,463.00
2023-04-18T02:57:56.156Z,462.00
2023-04-18T02:58:56.182Z,461.00
2023-04-18T02:59:56.217Z,464.00
2023-04-18T03:00:56.278Z,465.00
2023-04-18T03:01:56.308Z,466.00
2023-04-18T03:02:56.396Z,468.00
2023-04-18T03:03:56.369Z,468.00
2023-04-18T03:04:56.437Z,468.00
2023-04-18T03:05:56.409Z,466.00
2023-04-18T03:06:56.459Z,467.00
2023-04-18T03:07:56.458Z,465.00
2023-04-18T03:08:56.489Z,466.00
2023-04-18T03:09:56.524Z,463.00
2023-04-18T03:10:56.572Z,463.00
2023-04-18T03:11:56.588Z,459.00
2023-04-18T03:12:56.603Z,460.00
2023-04-18T03:13:56.645Z,457.00
2023-04-18T03:14:56.684Z,457.00
2023-04-18T03:15:56.737Z,457.00
2023-04-18T03:16:56.737Z,460.00
2023-04-18T03:17:56.809Z,460.00
2023-04-18T03:18:56.798Z,462.00
2023-04-18T03:19:56.825Z,464.00
2023-04-18T03:20:56.862Z,464.00
2023-04-18T03:21:56.891Z,460.00
2023-04-18T03:22:57.031Z,458.00
2023-04-18T03:23:56.949Z,458.00
2023-04-18T03:24:56.936Z,456.00
2023-04-18T03:25:56.964Z,456.00
2023-04-18T03:26:56.977Z,455.00
2023-04-18T03:27:56.994Z,456.00
2023-04-18T03:28:57.028Z,457.00
2023-04-18T03:29:57.050Z,458.00
2023-04-18T03:30:57.118Z,461.00
2023-04-18T03:31:57.104Z,458.00
2023-04-18T03:32:57.149Z,458.00
2023-04-18T03:33:57.139Z,459.00
2023-04-18T03:34:57.166Z,459.00
2023-04-18T03:35:57.184Z,461.00
2023-04-18T03:36:57.205Z,461.00
2023-04-18T03:37:57.213Z,463.00
2023-04-18T03:38:57.263Z,463.00
2023-04-18T03:39:57.258Z,463.00
2023-04-18T03:40:57.262Z,463.00
2023-04-18T03:41:57.273Z,465.00
2023-04-18T03:42:57.277Z,465.00
2023-04-18T03:43:57.301Z,465.00
2023-04-18T03:44:57.320Z,464.00
2023-04-18T03:45:57.361Z,462.00
2023-04-18T03:46:57.353Z,460.00
2023-04-18T03:47:57.386Z,458.00
2023-04-18T03:48:57.356Z,458.00
2023-04-18T03:49:57.364Z,459.00
2023-04-18T03:50:57.374Z,461.00
2023-04-18T03:51:57.381Z,461.00
2023-04-18T03:52:57.391Z,462.00
2023-04-18T03:53:57.409Z,461.00
2023-04-18T03:54:57.472Z,459.00
2023-04-18T03:55:57.427Z,457.00
2023-04-18T03:56:57.451Z,457.00
2023-04-18T03:57:57.450Z,457.00
2023-04-18T03:58:57.458Z,458.00
2023-04-18T03:59:57.470Z,456.00
2023-04-18T04:00:57.471Z,454.00
2023-04-18T04:01:57.545Z,453.00
2023-04-18T04:02:57.691Z,454.00
2023-04-18T04:03:57.635Z,458.00
2023-04-18T04:04:57.542Z,459.00
2023-04-18T04:05:57.518Z,458.00
2023-04-18T04:06:57.518Z,459.00
2023-04-18T04:07:57.530Z,458.00
2023-04-18T04:08:57.538Z,458.00
2023-04-18T04:09:57.534Z,458.00
2023-04-18T04:10:57.558Z,460.00
2023-04-18T04:11:57.538Z,460.00
2023-04-18T04:12:57.541Z,458.00
2023-04-18T04:13:57.545Z,461.00
2023-04-18T04:14:57.541Z,460.00
2023-04-18T04:15:57.547Z,460.00
2023-04-18T04:16:57.544Z,460.00
2023-04-18T04:17:57.589Z,459.00
2023-04-18T04:18:57.550Z,459.00
2023-04-18T04:19:57.549Z,459.00
2023-04-18T04:20:57.534Z,459.00
2023-04-18T04:21:57.540Z,458.00
2023-04-18T04:22:57.540Z,458.00
2023-04-18T04:23:57.533Z,458.00
2023-04-18T04:24:57.532Z,459.00
2023-04-18T04:25:57.528Z,461.00
2023-04-18T04:26:57.557Z,460.00
2023-04-18T04:27:57.526Z,458.00
2023-04-18T04:28:57.524Z,459.00
2023-04-18T04:29:57.525Z,459.00
2023-04-18T04:30:57.520Z,459.00
2023-04-18T04:31:57.568Z,460.00
2023-04-18T04:32:57.539Z,458.00
2023-04-18T04:33:57.522Z,459.00
2023-04-18T04:34:57.521Z,459.00
2023-04-18T04:35:57.511Z,459.00
2023-04-18T04:36:57.510Z,460.00
2023-04-18T04:37:57.512Z,461.00
2023-04-18T04:38:57.512Z,460.00
2023-04-18T04:39:57.525Z,460.00
2023-04-18T04:40:57.503Z,460.00
2023-04-18T04:41:57.528Z,461.00
2023-04-18T04:42:57.523Z,460.00
2023-04-18T04:43:57.504Z,460.00
2023-04-18T04:44:57.547Z,462.00
2023-04-18T04:45:57.598Z,462.00
2023-04-18T04:46:57.495Z,460.00
2023-04-18T04:47:57.541Z,459.00
2023-04-18T04:48:57.482Z,461.00
2023-04-18T04:49:57.473Z,459.00
2023-04-18T04:50:57.470Z,456.00
2023-04-18T04:51:58.035Z,454.00
2023-04-18T04:52:57.458Z,453.00
2023-04-18T04:53:57.458Z,454.00
2023-04-18T04:54:57.475Z,456.00
2023-04-18T04:55:57.453Z,458.00
2023-04-18T04:56:57.440Z,458.00
2023-04-18T04:57:57.444Z,458.00
2023-04-18T04:58:57.462Z,459.00
2023-04-18T04:59:57.438Z,459.00
2023-04-18T05:00:57.479Z,459.00
2023-04-18T05:01:57.501Z,458.00
2023-04-18T05:02:57.600Z,457.00
2023-04-18T05:03:57.509Z,455.00
2023-04-18T05:04:57.404Z,459.00
2023-04-18T05:05:57.385Z,459.00
2023-04-18T05:06:57.372Z,459.00
2023-04-18T05:07:57.365Z,460.00
2023-04-18T05:08:57.359Z,459.00
2023-04-18T05:09:57.365Z,458.00
2023-04-18T05:10:57.341Z,458.00
2023-04-18T05:11:57.334Z,455.00
2023-04-18T05:12:57.324Z,452.00
2023-04-18T05:13:57.333Z,453.00
2023-04-18T05:14:57.334Z,454.00
2023-04-18T05:15:57.295Z,452.00
2023-04-18T05:16:57.354Z,448.00
2023-04-18T05:17:57.470Z,447.00
2023-04-18T05:18:57.287Z,447.00
2023-04-18T05:19:57.283Z,444.00
2023-04-18T05:20:57.260Z,445.00
2023-04-18T05:21:57.261Z,444.00
2023-04-18T05:22:57.312Z,446.00
2023-04-18T05:23:57.257Z,449.00
2023-04-18T05:24:57.262Z,454.00
2023-04-18T05:25:57.455Z,456.00
2023-04-18T05:26:57.230Z,453.00
2023-04-18T05:27:57.229Z,453.00
2023-04-18T05:28:57.224Z,457.00
2023-04-18T05:29:57.221Z,458.00
2023-04-18T05:30:57.512Z,457.00
2023-04-18T05:31:57.187Z,456.00
2023-04-18T05:32:57.245Z,456.00
2023-04-18T05:33:57.171Z,455.00
2023-04-18T05:34:57.153Z,454.00
2023-04-18T05:35:57.159Z,454.00
2023-04-18T05:36:57.937Z,455.00
2023-04-18T05:37:57.460Z,456.00
2023-04-18T05:38:57.143Z,458.00
2023-04-18T05:40:00.015Z,459.00
2023-04-18T05:40:57.106Z,459.00
2023-04-18T05:41:57.128Z,462.00
2023-04-18T05:42:57.266Z,463.00
2023-04-18T05:44:04.937Z,462.00
2023-04-18T05:44:57.124Z,460.00
2023-04-18T05:45:58.002Z,459.00
2023-04-18T05:46:57.148Z,461.00
2023-04-18T05:47:57.480Z,462.00
2023-04-18T05:48:57.461Z,467.00
2023-04-18T05:49:57.444Z,472.00
2023-04-18T05:50:56.979Z,476.00
2023-04-18T05:51:56.960Z,482.00
2023-04-18T05:52:56.932Z,497.00
2023-04-18T05:53:57.964Z,520.00
2023-04-18T05:54:56.888Z,566.00
2023-04-18T05:55:56.900Z,603.00
2023-04-18T05:56:56.891Z,616.00
2023-04-18T05:57:56.957Z,625.00
2023-04-18T05:58:56.830Z,639.00
2023-04-18T05:59:56.965Z,651.00
2023-04-18T06:00:56.764Z,662.00
2023-04-18T06:01:56.787Z,673.00
2023-04-18T06:02:57.163Z,701.00
2023-04-18T06:03:57.031Z,721.00
2023-04-18T06:04:56.862Z,733.00
2023-04-18T06:05:56.685Z,744.00
2023-04-18T06:06:56.678Z,752.00
2023-04-18T06:07:56.958Z,762.00
2023-04-18T06:08:56.757Z,770.00
2023-04-18T06:09:57.052Z,778.00
2023-04-18T06:10:56.849Z,785.00
2023-04-18T06:11:56.854Z,791.00
2023-04-18T06:12:56.890Z,795.00
2023-04-18T06:13:56.960Z,799.00
2023-04-18T06:14:57.544Z,807.00
2023-04-18T06:15:57.573Z,811.00
2023-04-18T06:16:57.462Z,813.00
2023-04-18T06:17:57.651Z,815.00
2023-04-18T06:18:59.683Z,820.00
2023-04-18T06:19:57.722Z,828.00
2023-04-18T06:20:57.381Z,828.00
2023-04-18T06:21:57.481Z,831.00
2023-04-18T06:22:57.502Z,832.00
2023-04-18T06:23:57.652Z,832.00
2023-04-18T06:24:57.446Z,829.00
2023-04-18T06:25:57.284Z,831.00
2023-04-18T06:26:57.138Z,830.00
2023-04-18T06:27:56.931Z,829.00
2023-04-18T06:28:57.170Z,829.00
2023-04-18T06:29:57.479Z,837.00
2023-04-18T06:30:57.034Z,852.00
2023-04-18T06:31:57.097Z,858.00
2023-04-18T06:32:57.328Z,865.00
2023-04-18T06:33:57.304Z,870.00
2023-04-18T06:34:57.032Z,869.00
2023-04-18T06:35:56.813Z,870.00
2023-04-18T06:36:56.813Z,870.00
2023-04-18T06:37:56.819Z,872.00
2023-04-18T06:38:56.966Z,866.00
2023-04-18T06:39:56.867Z,872.00
2023-04-18T06:40:56.835Z,876.00
2023-04-18T06:41:56.846Z,878.00
2023-04-18T06:42:56.846Z,869.00
2023-04-18T06:44:02.604Z,857.00
2023-04-18T06:44:56.829Z,850.00
2023-04-18T06:45:56.887Z,842.00
2023-04-18T06:46:57.019Z,841.00
2023-04-18T06:47:56.771Z,839.00
2023-04-18T06:48:56.696Z,839.00
2023-04-18T06:49:56.980Z,837.00
2023-04-18T06:50:57.039Z,842.00
2023-04-18T06:51:56.610Z,851.00
2023-04-18T06:53:00.229Z,849.00
2023-04-18T06:53:56.494Z,851.00
2023-04-18T06:54:56.499Z,853.00
2023-04-18T06:55:56.410Z,852.00
2023-04-18T06:56:56.378Z,848.00
2023-04-18T06:57:56.348Z,848.00
2023-04-18T06:58:57.470Z,848.00
2023-04-18T06:59:56.279Z,848.00
2023-04-18T07:00:56.571Z,853.00
2023-04-18T07:01:56.215Z,858.00
2023-04-18T07:02:56.318Z,853.00
2023-04-18T07:03:56.649Z,852.00
2023-04-18T07:04:56.090Z,852.00
2023-04-18T07:05:56.044Z,853.00
2023-04-18T07:06:56.170Z,852.00
2023-04-18T07:07:55.966Z,855.00
2023-04-18T07:08:56.978Z,856.00
2023-04-18T07:09:55.887Z,856.00
2023-04-18T07:11:11.437Z,854.00
2023-04-18T07:11:55.805Z,860.00
2023-04-18T07:12:55.799Z,860.00
2023-04-18T07:13:55.991Z,866.00
2023-04-18T07:14:55.713Z,864.00
2023-04-18T07:15:55.673Z,863.00
2023-04-18T07:16:55.672Z,861.00
2023-04-18T07:17:55.617Z,860.00
2023-04-18T07:18:55.565Z,862.00
2023-04-18T07:19:55.530Z,856.00
2023-04-18T07:20:55.501Z,860.00
2023-04-18T07:21:55.463Z,860.00
2023-04-18T07:22:55.485Z,863.00
2023-04-18T07:23:55.485Z,864.00
2023-04-18T07:24:55.344Z,866.00
2023-04-18T07:25:55.305Z,863.00
2023-04-18T07:26:55.386Z,863.00
2023-04-18T07:27:55.484Z,863.00
2023-04-18T07:28:55.476Z,869.00
2023-04-18T07:29:54.168Z,866.00
2023-04-18T07:30:55.185Z,860.00
2023-04-18T07:31:55.081Z,860.00
2023-04-18T07:32:55.112Z,862.00
2023-04-18T07:33:55.531Z,863.00
2023-04-18T07:34:54.997Z,864.00
2023-04-18T07:35:54.960Z,866.00
2023-04-18T07:36:54.890Z,871.00
2023-04-18T07:37:54.872Z,879.00
2023-04-18T07:38:55.099Z,888.00
2023-04-18T07:39:54.823Z,896.00
2023-04-18T07:40:54.794Z,897.00
2023-04-18T07:41:54.784Z,904.00
2023-04-18T07:42:54.719Z,909.00
2023-04-18T07:43:54.998Z,912.00
2023-04-18T07:44:54.626Z,913.00
2023-04-18T07:45:54.601Z,915.00
2023-04-18T07:46:54.551Z,917.00
2023-04-18T07:47:54.547Z,913.00
2023-04-18T07:48:54.493Z,903.00
2023-04-18T07:49:54.441Z,892.00
2023-04-18T07:50:54.526Z,888.00
2023-04-18T07:51:54.319Z,885.00
2023-04-18T07:52:54.283Z,883.00
2023-04-18T07:53:54.230Z,883.00
2023-04-18T07:54:54.521Z,886.00
2023-04-18T07:55:54.502Z,872.00
2023-04-18T07:56:54.114Z,857.00
2023-04-18T07:57:54.084Z,837.00
2023-04-18T07:58:54.034Z,811.00
2023-04-18T07:59:53.982Z,779.00
2023-04-18T08:00:53.997Z,765.00
2023-04-18T08:01:53.937Z,753.00
2023-04-18T08:02:53.931Z,738.00
2023-04-18T08:03:53.976Z,723.00
2023-04-18T08:04:53.974Z,715.00
2023-04-18T08:05:54.001Z,705.00
2023-04-18T08:06:53.749Z,698.00
2023-04-18T08:07:53.721Z,693.00
2023-04-18T08:08:53.993Z,687.00
2023-04-18T08:09:53.660Z,680.00
2023-04-18T08:10:53.732Z,674.00
2023-04-18T08:11:53.605Z,664.00
2023-04-18T08:12:53.569Z,657.00
2023-04-18T08:13:53.525Z,650.00
2023-04-18T08:14:53.497Z,642.00
2023-04-18T08:15:53.543Z,637.00
2023-04-18T08:16:53.431Z,628.00
2023-04-18T08:17:53.405Z,618.00
2023-04-18T08:18:53.375Z,612.00
2023-04-18T08:19:53.505Z,607.00
2023-04-18T08:20:53.316Z,603.00
2023-04-18T08:21:53.301Z,599.00
2023-04-18T08:23:06.115Z,594.00
2023-04-18T08:23:53.289Z,590.00
2023-04-18T08:25:04.469Z,589.00
2023-04-18T08:25:53.205Z,586.00
2023-04-18T08:26:53.239Z,581.00
2023-04-18T08:27:53.127Z,574.00
2023-04-18T08:28:53.101Z,564.00
2023-04-18T08:29:53.534Z,564.00
2023-04-18T08:30:53.032Z,573.00
2023-04-18T08:31:53.072Z,588.00
2023-04-18T08:32:53.101Z,660.00
2023-04-18T08:33:52.947Z,674.00
2023-04-18T08:34:53.031Z,682.00
2023-04-18T08:35:52.858Z,699.00
2023-04-18T08:36:52.809Z,715.00
2023-04-18T08:37:52.807Z,728.00
2023-04-18T08:38:52.754Z,738.00
2023-04-18T08:39:53.804Z,753.00
2023-04-18T08:40:52.687Z,765.00
2023-04-18T08:41:52.648Z,783.00
2023-04-18T08:42:52.738Z,848.00
2023-04-18T08:43:55.149Z,883.00
2023-04-18T08:44:53.019Z,871.00
2023-04-18T08:45:52.620Z,851.00
2023-04-18T08:46:52.474Z,845.00
2023-04-18T08:47:52.465Z,840.00
2023-04-18T08:48:52.407Z,849.00
2023-04-18T08:49:52.512Z,856.00
2023-04-18T08:50:52.338Z,860.00
2023-04-18T08:51:52.284Z,900.00
2023-04-18T08:52:52.261Z,927.00
2023-04-18T08:53:52.513Z,935.00
2023-04-18T08:54:52.182Z,939.00
2023-04-18T08:55:52.168Z,946.00
2023-04-18T08:56:52.141Z,943.00
2023-04-18T08:57:52.086Z,943.00
2023-04-18T08:58:52.594Z,945.00
2023-04-18T08:59:52.048Z,946.00
2023-04-18T09:00:52.084Z,948.00
2023-04-18T09:01:51.043Z,950.00
2023-04-18T09:02:52.723Z,944.00
2023-04-18T09:03:52.078Z,939.00
2023-04-18T09:04:52.001Z,942.00
2023-04-18T09:05:51.988Z,926.00
2023-04-18T09:06:51.978Z,920.00
2023-04-18T09:07:52.014Z,907.00
2023-04-18T09:08:51.919Z,893.00
2023-04-18T09:09:51.890Z,890.00
2023-04-18T09:10:51.875Z,884.00
2023-04-18T09:11:51.833Z,875.00
2023-04-18T09:12:52.128Z,878.00
2023-04-18T09:13:51.782Z,872.00
2023-04-18T09:14:51.905Z,871.00
2023-04-18T09:15:51.739Z,883.00
2023-04-18T09:16:51.743Z,884.00
2023-04-18T09:17:52.036Z,886.00
2023-04-18T09:18:51.652Z,891.00
2023-04-18T09:19:51.620Z,899.00
2023-04-18T09:20:51.590Z,910.00
2023-04-18T09:21:52.022Z,922.00
2023-04-18T09:22:51.620Z,921.00
2023-04-18T09:23:51.587Z,925.00
2023-04-18T09:24:51.564Z,926.00
2023-04-18T09:25:52.027Z,927.00
2023-04-18T09:26:52.024Z,930.00
2023-04-18T09:27:52.061Z,933.00
2023-04-18T09:28:53.734Z,935.00
2023-04-18T09:29:51.538Z,929.00
2023-04-18T09:30:51.697Z,916.00
2023-04-18T09:31:51.534Z,913.00
2023-04-18T09:32:51.618Z,903.00
2023-04-18T09:33:51.404Z,708.00
2023-04-18T09:34:51.376Z,647.00
2023-04-18T09:35:51.342Z,642.00
2023-04-18T09:36:51.559Z,631.00
2023-04-18T09:37:52.266Z,616.00
2023-04-18T09:38:53.720Z,601.00
2023-04-18T09:39:51.212Z,593.00
2023-04-18T09:40:51.532Z,588.00
2023-04-18T09:41:51.163Z,583.00
2023-04-18T09:42:51.147Z,578.00
2023-04-18T09:43:51.159Z,571.00
2023-04-18T09:44:51.207Z,566.00
2023-04-18T09:45:51.548Z,560.00
2023-04-18T09:46:51.448Z,557.00
2023-04-18T09:47:51.560Z,551.00
2023-04-18T09:48:51.342Z,547.00
2023-04-18T09:49:51.391Z,542.00
2023-04-18T09:50:51.460Z,539.00
2023-04-18T09:51:51.558Z,538.00
2023-04-18T09:52:51.513Z,535.00
2023-04-18T09:53:52.581Z,533.00
2023-04-18T09:54:51.599Z,530.00
2023-04-18T09:55:52.082Z,531.00
2023-04-18T09:56:51.681Z,529.00
2023-04-18T09:57:51.727Z,530.00
2023-04-18T09:58:51.767Z,527.00
2023-04-18T09:59:51.790Z,528.00
2023-04-18T10:00:52.044Z,525.00
2023-04-18T10:01:51.940Z,523.00
2023-04-18T10:02:52.093Z,520.00
2023-04-18T10:03:52.054Z,518.00
2023-04-18T10:04:52.207Z,518.00
2023-04-18T10:05:52.554Z,518.00
2023-04-18T10:06:52.100Z,519.00
2023-04-18T10:07:52.255Z,516.00
2023-04-18T10:08:52.140Z,516.00
2023-04-18T10:09:52.184Z,515.00
2023-04-18T10:10:52.555Z,514.00
2023-04-18T10:11:52.227Z,517.00
2023-04-18T10:12:52.292Z,517.00
2023-04-18T10:13:52.321Z,516.00
2023-04-18T10:14:52.538Z,518.00
2023-04-18T10:15:52.471Z,518.00
2023-04-18T10:16:52.420Z,516.00
2023-04-18T10:18:03.468Z,517.00
2023-04-18T10:18:52.632Z,515.00
2023-04-18T10:19:52.425Z,518.00
2023-04-18T10:20:52.395Z,521.00
2023-04-18T10:21:52.366Z,519.00
2023-04-18T10:22:53.587Z,523.00
2023-04-18T10:23:52.303Z,528.00
2023-04-18T10:24:52.556Z,528.00
2023-04-18T10:25:52.258Z,528.00
2023-04-18T10:26:52.945Z,533.00
2023-04-18T10:27:52.195Z,536.00
2023-04-18T10:28:52.551Z,545.00
2023-04-18T10:29:52.161Z,561.00
2023-04-18T10:30:52.132Z,564.00
2023-04-18T10:31:52.667Z,565.00
2023-04-18T10:32:52.127Z,561.00
2023-04-18T10:34:03.178Z,549.00
2023-04-18T10:34:52.101Z,538.00
2023-04-18T10:35:52.047Z,527.00
2023-04-18T10:36:52.049Z,517.00
2023-04-18T10:37:52.352Z,506.00
2023-04-18T10:38:52.029Z,498.00
2023-04-18T10:39:51.987Z,492.00
2023-04-18T10:40:52.116Z,485.00
2023-04-18T10:41:52.092Z,480.00
2023-04-18T10:42:52.072Z,473.00
2023-04-18T10:43:51.937Z,470.00
2023-04-18T10:44:51.922Z,470.00
2023-04-18T10:45:51.938Z,468.00
2023-04-18T10:46:51.984Z,467.00
2023-04-18T10:47:52.117Z,465.00
2023-04-18T10:48:51.862Z,465.00
2023-04-18T10:49:51.836Z,463.00
2023-04-18T10:50:51.837Z,461.00
2023-04-18T10:51:52.680Z,461.00
2023-04-18T10:52:51.767Z,461.00
2023-04-18T10:53:51.758Z,457.00
2023-04-18T10:54:51.747Z,455.00
2023-04-18T10:55:51.728Z,456.00
2023-04-18T10:56:51.717Z,455.00
2023-04-18T10:57:52.056Z,454.00
2023-04-18T10:58:51.720Z,451.00
2023-04-18T10:59:51.657Z,451.00
2023-04-18T11:00:51.675Z,449.00
2023-04-18T11:01:52.062Z,444.00
2023-04-18T11:02:51.750Z,443.00
2023-04-18T11:03:51.813Z,439.00
2023-04-18T11:04:51.566Z,438.00
2023-04-18T11:05:51.551Z,437.00
2023-04-18T11:06:51.647Z,435.00
2023-04-18T11:07:52.060Z,435.00
2023-04-18T11:08:51.571Z,434.00
2023-04-18T11:09:52.059Z,431.00
2023-04-18T11:10:51.589Z,432.00
2023-04-18T11:11:52.068Z,434.00
2023-04-18T11:12:51.597Z,434.00
2023-04-18T11:13:51.612Z,430.00
2023-04-18T11:14:51.622Z,429.00
2023-04-18T11:15:51.627Z,427.00
2023-04-18T11:16:52.139Z,423.00
2023-04-18T11:17:51.674Z,423.00
2023-04-18T11:18:51.661Z,424.00
2023-04-18T11:19:52.073Z,423.00
2023-04-18T11:20:51.666Z,425.00
2023-04-18T11:21:52.094Z,426.00
2023-04-18T11:22:51.814Z,428.00
2023-04-18T11:23:51.668Z,428.00
2023-04-18T11:24:51.673Z,428.00
2023-04-18T11:25:51.686Z,428.00
2023-04-18T11:26:52.072Z,431.00
2023-04-18T11:27:51.722Z,431.00
2023-04-18T11:28:51.693Z,434.00
2023-04-18T11:29:51.705Z,437.00
2023-04-18T11:30:51.757Z,438.00
2023-04-18T11:31:52.123Z,439.00
2023-04-18T11:32:52.141Z,439.00
2023-04-18T11:33:51.713Z,441.00
2023-04-18T11:34:51.725Z,441.00
2023-04-18T11:35:51.711Z,441.00
2023-04-18T11:36:51.717Z,442.00
2023-04-18T11:37:51.730Z,442.00
2023-04-18T11:38:52.096Z,442.00
2023-04-18T11:39:51.734Z,442.00
2023-04-18T11:40:51.747Z,441.00
2023-04-18T11:41:52.072Z,440.00
2023-04-18T11:42:51.781Z,438.00
2023-04-18T11:43:52.089Z,439.00
2023-04-18T11:44:51.814Z,439.00
2023-04-18T11:45:51.843Z,438.00
2023-04-18T11:46:52.130Z,438.00
2023-04-18T11:47:51.899Z,436.00
2023-04-18T11:48:51.871Z,435.00
2023-04-18T11:49:51.871Z,431.00
2023-04-18T11:50:51.894Z,428.00
2023-04-18T11:51:51.925Z,430.00
2023-04-18T11:52:51.968Z,427.00
2023-04-18T11:53:51.965Z,426.00
2023-04-18T11:54:52.053Z,425.00
2023-04-18T11:55:52.041Z,423.00
2023-04-18T11:56:52.083Z,424.00
2023-04-18T11:57:52.034Z,425.00
2023-04-18T11:58:52.062Z,436.00
2023-04-18T11:59:52.091Z,469.00
2023-04-18T12:00:52.119Z,494.00
2023-04-18T12:01:53.204Z,506.00
2023-04-18T12:02:52.316Z,510.00
2023-04-18T12:03:52.282Z,513.00
2023-04-18T12:04:52.360Z,515.00
2023-04-18T12:05:52.312Z,517.00
2023-04-18T12:06:52.653Z,516.00
2023-04-18T12:07:52.175Z,516.00
2023-04-18T12:08:54.022Z,515.00
2023-04-18T12:10:40.856Z,516.00
2023-04-18T12:11:41.858Z,518.00
2023-04-18T12:12:41.672Z,516.00
2023-04-18T12:13:41.840Z,516.00
2023-04-18T12:14:41.675Z,513.00
2023-04-18T12:15:41.589Z,510.00
2023-04-18T12:16:41.993Z,511.00
2023-04-18T12:17:41.985Z,510.00
2023-04-18T12:18:40.859Z,510.00
2023-04-18T12:19:41.716Z,507.00
2023-04-18T12:20:41.605Z,506.00
2023-04-18T12:21:41.592Z,504.00
2023-04-18T12:22:41.858Z,502.00
2023-04-18T12:23:41.957Z,499.00
2023-04-18T12:24:41.906Z,495.00
2023-04-18T12:25:41.837Z,496.00
2023-04-18T12:26:41.773Z,492.00
2023-04-18T12:27:41.864Z,493.00
2023-04-18T12:28:41.979Z,490.00
2023-04-18T12:29:41.827Z,486.00